Flora, IL

9:29 AM CDT on April 23, 2018 (GMT -0500)
Flora Municipal

Weather History for KFOA - November, 2012

Change the Weather History Date:

Monday, November 12, 2012

  Actual Average (KSLO) Record (KSLO)
Temperature  
Mean Temperature 42 °F -  
Max Temperature 51 °F 53 °F 79 °F (1971)
Min Temperature 31 °F 34 °F 18 °F (1976)
Degree Days  
Heating Degree Days 24    
Moisture  
Dew Point 31 °F    
Average Humidity 74    
Maximum Humidity 97    
Minimum Humidity 43    
Precipitation  
Precipitation 0.40 in - - ()
Sea Level Pressure  
Sea Level Pressure 30.29 in    
Wind  
Wind Speed 11 mph (West)    
Max Wind Speed 21 mph    
Max Gust Speed 31 mph    
Visibility 9 miles    
Events Rain    
Averages and records for this station are not official NWS values.
T = Trace of Precipitation, MM = Missing Value Source: NWS Daily Summary

Daily Weather History Graph

Daily Weather History Graph

Search for Another Location

Airport or City:

Astronomy

Nov. 12, 2012 Rise Set
Actual Time 6:33 AM CST 4:42 PM CST
Civil Twilight 6:04 AM CST 5:10 PM CST
Nautical Twilight 5:32 AM CST 5:42 PM CST
Astronomical Twilight 5:01 AM CST 6:13 PM CST
Moon 4:58 AM CST (11/12) 3:47 PM CST (11/12)
Length of Visible Light 11h 05m
Length of Day
10h 09m
Waning Crescent, 2% of the Moon is Illuminated
Nov 12
Waning Crescent
Nov 13
New
Nov 20
First Quarter
Nov 28
Full
Dec 6
Last Quarter

Hourly Weather History & Observations

Time (CST) Temp. Windchill Dew Point Humidity Pressure Visibility Wind Dir Wind Speed Gust Speed Precip Events Conditions
12:15 AM 51.8 °F - 51.1 °F 97% 30.02 in 5.0 mi WNW 5.8 mph - 0.03 in Rain Rain
12:35 AM 51.8 °F - 51.1 °F 97% 30.02 in 5.0 mi WNW 4.6 mph - 0.10 in Rain Rain
12:55 AM 51.8 °F - 50.9 °F 97% 30.00 in 5.0 mi NW 8.1 mph - 0.17 in Rain Rain
1:15 AM 47.7 °F - 46.0 °F 94% 30.03 in 7.0 mi NW 11.5 mph 31.1 mph 0.04 in Rain Light Rain
1:35 AM 46.0 °F 39.0 °F 45.0 °F 96% 30.07 in 10.0 mi WNW 17.3 mph - 0.05 in Rain Light Rain
1:55 AM 45.0 °F 39.7 °F 43.7 °F 95% 30.09 in 2.0 mi NW 10.4 mph 17.3 mph 0.11 in Rain Heavy Rain
2:15 AM 43.2 °F 35.3 °F 41.9 °F 95% 30.08 in 7.0 mi NW 17.3 mph 25.3 mph 0.02 in Rain Light Rain
2:35 AM 42.1 °F 34.9 °F 41.0 °F 96% 30.11 in 7.0 mi WNW 13.8 mph 21.9 mph 0.05 in Rain Rain
2:55 AM 41.5 °F 34.6 °F 40.5 °F 96% 30.10 in 10.0 mi NW 12.7 mph 17.3 mph 0.07 in Rain Light Rain
3:39 AM 39.2 °F 31.2 °F 37.4 °F 93% 30.13 in 10.0 mi NW 13.8 mph 24.2 mph 0.02 in   Drizzle
3:55 AM 39.2 °F 31.2 °F 37.6 °F 94% 30.12 in 7.0 mi NW 13.8 mph 21.9 mph 0.03 in Rain Light Rain
4:15 AM 38.8 °F 30.8 °F 37.4 °F 95% 30.13 in 7.0 mi NW 13.8 mph 19.6 mph 0.01 in Rain Rain
4:35 AM 38.3 °F 30.1 °F 36.7 °F 94% 30.16 in 7.0 mi NW 13.8 mph 21.9 mph 0.01 in Rain Rain
4:55 AM 38.1 °F 29.1 °F 36.9 °F 95% 30.15 in 10.0 mi WNW 16.1 mph 19.6 mph 0.02 in   Overcast
5:15 AM 38.1 °F 29.1 °F 36.9 °F 95% 30.16 in 10.0 mi WNW 16.1 mph 20.7 mph N/A   Overcast
5:35 AM 37.4 °F 26.9 °F 35.4 °F 93% 30.19 in 10.0 mi WNW 20.7 mph 27.6 mph N/A   Overcast
5:55 AM 36.5 °F 27.0 °F 33.8 °F 90% 30.19 in 10.0 mi WNW 16.1 mph 21.9 mph N/A Rain Light Rain
6:15 AM 37.4 °F 28.2 °F 33.8 °F 87% 30.23 in 10.0 mi WNW 16.1 mph 24.2 mph N/A   Overcast
6:35 AM 35.8 °F 26.5 °F 32.2 °F 87% 30.24 in 10.0 mi NW 15.0 mph 24.2 mph N/A   Overcast
6:55 AM 35.6 °F 26.6 °F 32.0 °F 87% 30.24 in 10.0 mi WNW 13.8 mph 19.6 mph N/A   Overcast
7:15 AM 35.2 °F 24.4 °F 31.8 °F 87% 30.25 in 10.0 mi WNW 19.6 mph 26.5 mph N/A   Overcast
7:35 AM 35.4 °F 25.3 °F 31.6 °F 86% 30.26 in 10.0 mi NW 17.3 mph 21.9 mph N/A   Scattered Clouds
7:55 AM 35.6 °F 28.0 °F 31.3 °F 84% 30.27 in 10.0 mi WNW 10.4 mph 18.4 mph N/A   Clear
8:15 AM 35.8 °F 26.9 °F 31.5 °F 84% 30.27 in 10.0 mi WNW 13.8 mph 20.7 mph N/A   Clear
8:35 AM 35.2 °F 26.2 °F 30.2 °F 82% 30.29 in 10.0 mi NW 13.8 mph - N/A   Scattered Clouds
8:55 AM 35.4 °F 25.3 °F 28.6 °F 76% 30.30 in 10.0 mi WNW 17.3 mph 21.9 mph N/A   Clear
9:15 AM 36.1 °F 26.5 °F 29.3 °F 76% 30.31 in 10.0 mi WNW 16.1 mph 20.7 mph N/A   Clear
9:35 AM 36.3 °F 28.0 °F 28.0 °F 72% 30.32 in 10.0 mi West 12.7 mph 19.6 mph N/A   Clear
9:55 AM 37.6 °F 27.1 °F 28.2 °F 69% 30.32 in 10.0 mi WNW 20.7 mph 26.5 mph N/A   Clear
10:15 AM 37.6 °F 29.1 °F 25.9 °F 63% 30.33 in 10.0 mi WNW 13.8 mph 24.2 mph N/A   Clear
10:35 AM 38.8 °F 30.8 °F 26.1 °F 60% 30.33 in 10.0 mi West 13.8 mph - N/A   Clear
10:55 AM 39.7 °F 31.5 °F 26.6 °F 59% 30.33 in 10.0 mi WNW 15.0 mph 20.7 mph N/A   Clear
11:15 AM 40.8 °F 33.7 °F 26.8 °F 57% 30.32 in 10.0 mi WNW 12.7 mph 17.3 mph N/A   Clear
11:35 AM 41.2 °F 34.5 °F 26.8 °F 57% 30.32 in 10.0 mi West 11.5 mph 16.1 mph N/A   Clear
11:55 AM 42.1 °F 34.5 °F 27.7 °F 57% 30.32 in 10.0 mi WNW 15.0 mph 21.9 mph N/A   Clear
12:15 PM 42.1 °F 33.9 °F 26.8 °F 55% 30.32 in 10.0 mi West 17.3 mph 23.0 mph N/A   Clear
12:35 PM 42.1 °F 33.9 °F 25.5 °F 52% 30.32 in 10.0 mi West 17.3 mph - N/A   Clear
12:55 PM 42.3 °F 34.4 °F 24.3 °F 49% 30.32 in 10.0 mi West 16.1 mph - N/A   Clear
1:15 PM 43.7 °F 37.3 °F 27.1 °F 52% 30.32 in 10.0 mi West 12.7 mph 18.4 mph N/A   Clear
1:35 PM 43.2 °F 35.9 °F 24.4 °F 48% 30.31 in 10.0 mi West 15.0 mph - N/A   Clear
1:55 PM 44.1 °F 36.8 °F 26.4 °F 50% 30.32 in 10.0 mi West 16.1 mph 23.0 mph N/A   Clear
2:15 PM 44.6 °F 36.6 °F 23.0 °F 43% 30.31 in 10.0 mi West 19.6 mph 24.2 mph N/A   Clear
2:35 PM 44.6 °F 37.4 °F 23.0 °F 43% 30.31 in 10.0 mi West 16.1 mph 23.0 mph N/A   Clear
2:55 PM 44.1 °F 38.6 °F 25.0 °F 47% 30.32 in 10.0 mi West 10.4 mph 17.3 mph N/A   Clear
3:15 PM 43.7 °F 37.3 °F 24.1 °F 46% 30.33 in 10.0 mi West 12.7 mph 21.9 mph N/A   Clear
3:35 PM 43.7 °F 37.3 °F 23.7 °F 45% 30.33 in 10.0 mi West 12.7 mph - N/A   Clear
3:55 PM 43.2 °F 35.9 °F 23.0 °F 45% 30.34 in 10.0 mi West 15.0 mph - N/A   Clear
4:15 PM 42.8 °F 36.6 °F 23.5 °F 47% 30.34 in 10.0 mi West 11.5 mph - N/A   Clear
4:35 PM 41.5 °F 37.1 °F 24.6 °F 51% 30.35 in 10.0 mi West 6.9 mph - N/A   Clear
4:55 PM 40.3 °F 36.3 °F 26.2 °F 57% 30.35 in 10.0 mi West 5.8 mph - N/A   Clear
5:15 PM 40.1 °F 38.0 °F 26.2 °F 58% 30.36 in 10.0 mi WSW 3.5 mph - N/A   Clear
5:35 PM 36.5 °F 32.7 °F 28.4 °F 72% 30.37 in 10.0 mi SW 4.6 mph - N/A   Clear
5:55 PM 37.2 °F 33.6 °F 29.3 °F 73% 30.37 in 10.0 mi SW 4.6 mph - N/A   Clear
6:15 PM 37.4 °F 33.8 °F 28.4 °F 70% 30.38 in 10.0 mi WSW 4.6 mph - N/A   Clear
6:35 PM 35.6 °F 31.7 °F 28.6 °F 76% 30.39 in 10.0 mi SSW 4.6 mph - N/A   Clear
6:55 PM 34.0 °F 29.8 °F 28.2 °F 79% 30.39 in 10.0 mi SSW 4.6 mph - N/A   Clear
7:15 PM 35.6 °F 31.7 °F 30.2 °F 81% 30.40 in 10.0 mi SSW 4.6 mph - N/A   Clear
7:35 PM 34.2 °F 30.0 °F 28.9 °F 81% 30.40 in 10.0 mi SSW 4.6 mph - N/A   Clear
7:55 PM 35.2 °F 32.4 °F 28.9 °F 78% 30.41 in 10.0 mi SW 3.5 mph - N/A   Clear
8:15 PM 35.6 °F 31.7 °F 27.7 °F 73% 30.42 in 10.0 mi WSW 4.6 mph - N/A   Clear
8:35 PM 35.2 °F 31.2 °F 27.0 °F 72% 30.42 in 10.0 mi SW 4.6 mph - N/A   Clear
8:55 PM 34.7 °F 29.6 °F 28.0 °F 77% 30.43 in 10.0 mi SW 5.8 mph - N/A   Clear
9:15 PM 35.2 °F 31.2 °F 26.8 °F 71% 30.43 in 10.0 mi SW 4.6 mph - N/A   Clear
9:35 PM 35.8 °F 31.9 °F 27.0 °F 70% 30.43 in 10.0 mi WSW 4.6 mph - N/A   Clear
9:55 PM 35.2 °F 30.3 °F 27.1 °F 72% 30.43 in 10.0 mi WSW 5.8 mph - N/A   Clear
10:15 PM 32.9 °F 28.5 °F 26.8 °F 78% 30.43 in 10.0 mi WSW 4.6 mph - N/A   Clear
10:35 PM 35.4 °F 30.5 °F 27.1 °F 72% 30.44 in 10.0 mi WSW 5.8 mph - N/A   Clear
10:55 PM 35.2 °F 31.2 °F 26.6 °F 71% 30.44 in 10.0 mi West 4.6 mph - N/A   Clear
11:15 PM 35.2 °F 31.2 °F 27.3 °F 73% 30.44 in 10.0 mi WSW 4.6 mph - N/A   Clear
11:35 PM 33.1 °F 30.0 °F 26.8 °F 78% 30.44 in 10.0 mi WSW 3.5 mph - N/A   Clear
11:55 PM 31.8 °F 27.3 °F 27.5 °F 84% 30.45 in 10.0 mi WSW 4.6 mph - N/A   Clear